sensor_id;sensor_type;location;lat;lon;timestamp;pressure;altitude;pressure_sealevel;temperature;humidity
80542;BME280;69870;51.460;8.842;2023-07-20T00:01:29;98215.69;;;15.84;80.22
80542;BME280;69870;51.460;8.842;2023-07-20T00:03:56;98215.69;;;15.84;79.86
80542;BME280;69870;51.460;8.842;2023-07-20T00:06:23;98218.81;;;15.82;80.00
80542;BME280;69870;51.460;8.842;2023-07-20T00:08:51;98224.31;;;15.82;80.04
80542;BME280;69870;51.460;8.842;2023-07-20T00:11:19;98218.44;;;15.80;80.38
80542;BME280;69870;51.460;8.842;2023-07-20T00:13:45;98218.03;;;15.78;80.54
80542;BME280;69870;51.460;8.842;2023-07-20T00:16:12;98220.78;;;15.78;80.33
80542;BME280;69870;51.460;8.842;2023-07-20T00:18:38;98219.22;;;15.77;80.59
80542;BME280;69870;51.460;8.842;2023-07-20T00:21:05;98211.00;;;15.77;80.67
80542;BME280;69870;51.460;8.842;2023-07-20T00:23:31;98211.00;;;15.77;80.69
80542;BME280;69870;51.460;8.842;2023-07-20T00:25:58;98208.63;;;15.76;80.72
80542;BME280;69870;51.460;8.842;2023-07-20T00:28:26;98209.03;;;15.74;80.35
80542;BME280;69870;51.460;8.842;2023-07-20T00:30:52;98215.66;;;15.73;80.63
80542;BME280;69870;51.460;8.842;2023-07-20T00:33:19;98210.97;;;15.74;80.29
80542;BME280;69870;51.460;8.842;2023-07-20T00:35:45;98214.50;;;15.74;80.72
80542;BME280;69870;51.460;8.842;2023-07-20T00:38:12;98208.63;;;15.72;80.89
80542;BME280;69870;51.460;8.842;2023-07-20T00:40:41;98212.53;;;15.71;80.82
80542;BME280;69870;51.460;8.842;2023-07-20T00:43:08;98210.19;;;15.70;80.09
80542;BME280;69870;51.460;8.842;2023-07-20T00:45:36;98203.94;;;15.66;80.86
80542;BME280;69870;51.460;8.842;2023-07-20T00:48:04;98208.22;;;15.63;80.48
80542;BME280;69870;51.460;8.842;2023-07-20T00:50:31;98210.97;;;15.63;80.72
80542;BME280;69870;51.460;8.842;2023-07-20T00:52:58;98200.78;;;15.60;80.90
80542;BME280;69870;51.460;8.842;2023-07-20T00:55:26;98207.06;;;15.57;80.79
80542;BME280;69870;51.460;8.842;2023-07-20T00:57:53;98208.22;;;15.56;80.83
80542;BME280;69870;51.460;8.842;2023-07-20T01:00:20;98202.75;;;15.53;80.72
80542;BME280;69870;51.460;8.842;2023-07-20T01:02:48;98214.88;;;15.48;80.73
80542;BME280;69870;51.460;8.842;2023-07-20T01:05:15;98216.41;;;15.46;80.64
80542;BME280;69870;51.460;8.842;2023-07-20T01:07:46;98226.56;;;15.41;80.96
80542;BME280;69870;51.460;8.842;2023-07-20T01:10:20;98225.00;;;15.37;80.98
80542;BME280;69870;51.460;8.842;2023-07-20T01:12:52;98218.31;;;15.31;80.98
80542;BME280;69870;51.460;8.842;2023-07-20T01:15:19;98221.84;;;15.28;81.23
80542;BME280;69870;51.460;8.842;2023-07-20T01:17:45;98222.63;;;15.28;81.27
80542;BME280;69870;51.460;8.842;2023-07-20T01:20:15;98217.91;;;15.25;80.96
80542;BME280;69870;51.460;8.842;2023-07-20T01:22:55;98218.28;;;15.24;81.62
80542;BME280;69870;51.460;8.842;2023-07-20T01:25:54;98212.44;;;15.25;81.63
80542;BME280;69870;51.460;8.842;2023-07-20T01:28:57;98214.00;;;15.26;80.95
80542;BME280;69870;51.460;8.842;2023-07-20T01:31:34;98207.34;;;15.27;81.28
80542;BME280;69870;51.460;8.842;2023-07-20T01:34:03;98205.78;;;15.26;81.21
80542;BME280;69870;51.460;8.842;2023-07-20T01:36:34;98217.13;;;15.28;81.75
80542;BME280;69870;51.460;8.842;2023-07-20T01:39:02;98213.22;;;15.29;81.04
80542;BME280;69870;51.460;8.842;2023-07-20T01:41:30;98212.84;;;15.31;81.31
80542;BME280;69870;51.460;8.842;2023-07-20T01:43:57;98212.06;;;15.34;80.71
80542;BME280;69870;51.460;8.842;2023-07-20T01:46:24;98209.31;;;15.34;80.96
80542;BME280;69870;51.460;8.842;2023-07-20T01:48:51;98219.13;;;15.35;81.17
80542;BME280;69870;51.460;8.842;2023-07-20T01:51:18;98214.03;;;15.37;80.84
80542;BME280;69870;51.460;8.842;2023-07-20T01:53:47;98215.59;;;15.38;81.27
80542;BME280;69870;51.460;8.842;2023-07-20T01:56:13;98216.38;;;15.38;81.17
80542;BME280;69870;51.460;8.842;2023-07-20T01:58:40;98221.47;;;15.40;80.68
80542;BME280;69870;51.460;8.842;2023-07-20T02:01:07;98218.34;;;15.41;81.31
80542;BME280;69870;51.460;8.842;2023-07-20T02:03:33;98215.22;;;15.43;80.65
80542;BME280;69870;51.460;8.842;2023-07-20T02:06:02;98214.84;;;15.45;81.43
80542;BME280;69870;51.460;8.842;2023-07-20T02:08:28;98223.06;;;15.45;81.17
80542;BME280;69870;51.460;8.842;2023-07-20T02:10:56;98225.81;;;15.45;81.59
80542;BME280;69870;51.460;8.842;2023-07-20T02:13:23;98225.81;;;15.45;81.55
80542;BME280;69870;51.460;8.842;2023-07-20T02:15:49;98216.03;;;15.44;80.83
80542;BME280;69870;51.460;8.842;2023-07-20T02:18:16;98225.03;;;15.44;80.84
80542;BME280;69870;51.460;8.842;2023-07-20T02:20:43;98226.16;;;15.43;80.91
80542;BME280;69870;51.460;8.842;2023-07-20T02:23:11;98220.69;;;15.43;81.00
80542;BME280;69870;51.460;8.842;2023-07-20T02:25:38;98220.31;;;15.45;81.01
80542;BME280;69870;51.460;8.842;2023-07-20T02:28:06;98219.97;;;15.46;81.61
80542;BME280;69870;51.460;8.842;2023-07-20T02:30:33;98218.75;;;15.47;81.00
80542;BME280;69870;51.460;8.842;2023-07-20T02:32:59;98224.25;;;15.47;80.97
80542;BME280;69870;51.460;8.842;2023-07-20T02:35:26;98225.44;;;15.46;80.99
80542;BME280;69870;51.460;8.842;2023-07-20T02:37:53;98217.22;;;15.46;81.28
80542;BME280;69870;51.460;8.842;2023-07-20T02:40:21;98211.72;;;15.46;81.56
80542;BME280;69870;51.460;8.842;2023-07-20T02:42:48;98214.84;;;15.45;81.57
80542;BME280;69870;51.460;8.842;2023-07-20T02:45:15;98216.03;;;15.44;81.31
80542;BME280;69870;51.460;8.842;2023-07-20T02:47:42;98221.09;;;15.41;81.32
80542;BME280;69870;51.460;8.842;2023-07-20T02:50:09;98215.19;;;15.36;81.35
80542;BME280;69870;51.460;8.842;2023-07-20T02:52:38;98203.81;;;15.34;81.23
80542;BME280;69870;51.460;8.842;2023-07-20T02:55:06;98208.91;;;15.32;81.52
80542;BME280;69870;51.460;8.842;2023-07-20T02:57:34;98212.41;;;15.29;81.55
80542;BME280;69870;51.460;8.842;2023-07-20T03:00:01;98215.16;;;15.25;82.00
80542;BME280;69870;51.460;8.842;2023-07-20T03:02:31;98215.56;;;15.24;81.85
80542;BME280;69870;51.460;8.842;2023-07-20T03:04:58;98213.97;;;15.19;81.82
80542;BME280;69870;51.460;8.842;2023-07-20T03:07:27;98213.19;;;15.19;81.58
80542;BME280;69870;51.460;8.842;2023-07-20T03:09:53;98225.72;;;15.20;81.26
80542;BME280;69870;51.460;8.842;2023-07-20T03:12:21;98222.59;;;15.21;81.63
80542;BME280;69870;51.460;8.842;2023-07-20T03:14:51;98218.66;;;15.22;82.00
80542;BME280;69870;51.460;8.842;2023-07-20T03:17:17;98217.50;;;15.23;81.69
80542;BME280;69870;51.460;8.842;2023-07-20T03:19:45;98219.06;;;15.24;81.83
80542;BME280;69870;51.460;8.842;2023-07-20T03:22:12;98224.56;;;15.28;82.00
80542;BME280;69870;51.460;8.842;2023-07-20T03:24:39;98220.63;;;15.29;81.37
80542;BME280;69870;51.460;8.842;2023-07-20T03:27:06;98215.94;;;15.29;81.27
80542;BME280;69870;51.460;8.842;2023-07-20T03:29:32;98222.22;;;15.30;81.90
80542;BME280;69870;51.460;8.842;2023-07-20T03:32:00;98220.28;;;15.30;81.39
80542;BME280;69870;51.460;8.842;2023-07-20T03:34:28;98221.06;;;15.31;81.84
80542;BME280;69870;51.460;8.842;2023-07-20T03:36:54;98228.88;;;15.32;81.41
80542;BME280;69870;51.460;8.842;2023-07-20T03:39:22;98217.94;;;15.32;81.75
80542;BME280;69870;51.460;8.842;2023-07-20T03:41:48;98220.28;;;15.34;81.74
80542;BME280;69870;51.460;8.842;2023-07-20T03:44:15;98221.47;;;15.33;82.13
80542;BME280;69870;51.460;8.842;2023-07-20T03:46:42;98217.53;;;15.34;81.65
80542;BME280;69870;51.460;8.842;2023-07-20T03:49:10;98228.88;;;15.36;81.91
80542;BME280;69870;51.460;8.842;2023-07-20T03:51:37;98223.41;;;15.36;82.05
80542;BME280;69870;51.460;8.842;2023-07-20T03:54:03;98226.16;;;15.36;82.04
80542;BME280;69870;51.460;8.842;2023-07-20T03:56:30;98223.41;;;15.36;81.77
80542;BME280;69870;51.460;8.842;2023-07-20T03:58:59;98232.41;;;15.36;81.57
80542;BME280;69870;51.460;8.842;2023-07-20T04:01:26;98231.25;;;15.37;82.11
80542;BME280;69870;51.460;8.842;2023-07-20T04:03:53;98239.09;;;15.39;82.15
80542;BME280;69870;51.460;8.842;2023-07-20T04:06:21;98233.22;;;15.40;81.61
80542;BME280;69870;51.460;8.842;2023-07-20T04:08:47;98227.38;;;15.42;82.17
80542;BME280;69870;51.460;8.842;2023-07-20T04:11:14;98226.16;;;15.43;81.73
80542;BME280;69870;51.460;8.842;2023-07-20T04:13:40;98225.03;;;15.44;81.98
80542;BME280;69870;51.460;8.842;2023-07-20T04:16:07;98231.28;;;15.45;81.60
80542;BME280;69870;51.460;8.842;2023-07-20T04:18:34;98226.59;;;15.45;81.77
80542;BME280;69870;51.460;8.842;2023-07-20T04:21:00;98223.88;;;15.49;81.87
80542;BME280;69870;51.460;8.842;2023-07-20T04:23:28;98222.28;;;15.51;81.56
80542;BME280;69870;51.460;8.842;2023-07-20T04:25:55;98223.09;;;15.55;81.49
80542;BME280;69870;51.460;8.842;2023-07-20T04:28:22;98219.19;;;15.60;81.59
80542;BME280;69870;51.460;8.842;2023-07-20T04:30:49;98225.06;;;15.65;81.94
80542;BME280;69870;51.460;8.842;2023-07-20T04:33:16;98217.63;;;15.69;81.87
80542;BME280;69870;51.460;8.842;2023-07-20T04:35:48;98214.13;;;15.72;81.79
80542;BME280;69870;51.460;8.842;2023-07-20T04:38:18;98216.47;;;15.74;81.76
80542;BME280;69870;51.460;8.842;2023-07-20T04:40:50;98219.19;;;15.74;81.28
80542;BME280;69870;51.460;8.842;2023-07-20T04:43:17;98230.56;;;15.76;81.78
80542;BME280;69870;51.460;8.842;2023-07-20T04:45:45;98230.56;;;15.76;81.77
80542;BME280;69870;51.460;8.842;2023-07-20T04:48:14;98230.56;;;15.76;81.50
80542;BME280;69870;51.460;8.842;2023-07-20T04:50:47;98240.38;;;15.77;81.48
80542;BME280;69870;51.460;8.842;2023-07-20T04:53:15;98239.97;;;15.78;81.63
80542;BME280;69870;51.460;8.842;2023-07-20T04:55:47;98243.09;;;15.80;81.71
80542;BME280;69870;51.460;8.842;2023-07-20T04:58:17;98235.66;;;15.81;81.56
80542;BME280;69870;51.460;8.842;2023-07-20T05:00:44;98238.00;;;15.82;81.50
80542;BME280;69870;51.460;8.842;2023-07-20T05:03:11;98243.50;;;15.82;81.42
80542;BME280;69870;51.460;8.842;2023-07-20T05:05:38;98245.09;;;15.83;81.22
80542;BME280;69870;51.460;8.842;2023-07-20T05:08:04;98239.22;;;15.81;81.15
80542;BME280;69870;51.460;8.842;2023-07-20T05:10:31;98242.75;;;15.82;81.36
80542;BME280;69870;51.460;8.842;2023-07-20T05:12:58;98247.81;;;15.83;81.69
80542;BME280;69870;51.460;8.842;2023-07-20T05:15:26;98247.06;;;15.86;81.64
80542;BME280;69870;51.460;8.842;2023-07-20T05:17:54;98254.47;;;15.89;81.86
80542;BME280;69870;51.460;8.842;2023-07-20T05:20:22;98250.97;;;15.92;81.37
80542;BME280;69870;51.460;8.842;2023-07-20T05:22:48;98250.56;;;15.94;81.61
80542;BME280;69870;51.460;8.842;2023-07-20T05:25:15;98246.25;;;15.96;81.35
80542;BME280;69870;51.460;8.842;2023-07-20T05:27:44;98243.50;;;16.00;81.06
80542;BME280;69870;51.460;8.842;2023-07-20T05:30:11;98239.22;;;15.95;81.52
80542;BME280;69870;51.460;8.842;2023-07-20T05:32:39;98245.50;;;15.99;81.20
80542;BME280;69870;51.460;8.842;2023-07-20T05:35:07;98240.78;;;16.00;80.92
80542;BME280;69870;51.460;8.842;2023-07-20T05:37:36;98241.19;;;15.95;81.25
80542;BME280;69870;51.460;8.842;2023-07-20T05:40:04;98250.97;;;15.96;80.86
80542;BME280;69870;51.460;8.842;2023-07-20T05:42:31;98247.47;;;15.95;81.19
80542;BME280;69870;51.460;8.842;2023-07-20T05:44:57;98240.00;;;15.92;80.79
80542;BME280;69870;51.460;8.842;2023-07-20T05:47:24;98250.19;;;15.92;80.74
80542;BME280;69870;51.460;8.842;2023-07-20T05:49:52;98254.88;;;15.91;80.67
80542;BME280;69870;51.460;8.842;2023-07-20T05:52:18;98260.38;;;15.91;81.12
80542;BME280;69870;51.460;8.842;2023-07-20T05:54:45;98274.06;;;15.91;80.58
80542;BME280;69870;51.460;8.842;2023-07-20T05:57:11;98272.53;;;15.90;80.48
80542;BME280;69870;51.460;8.842;2023-07-20T05:59:38;98264.66;;;15.89;80.74
80542;BME280;69870;51.460;8.842;2023-07-20T06:02:06;98266.25;;;15.93;80.51
80542;BME280;69870;51.460;8.842;2023-07-20T06:04:33;98270.56;;;15.94;80.45
80542;BME280;69870;51.460;8.842;2023-07-20T06:07:01;98268.59;;;15.98;80.47
80542;BME280;69870;51.460;8.842;2023-07-20T06:09:27;98267.84;;;16.01;80.54
80542;BME280;69870;51.460;8.842;2023-07-20T06:11:55;98279.19;;;16.03;80.04
80542;BME280;69870;51.460;8.842;2023-07-20T06:14:21;98277.63;;;16.06;80.25
80542;BME280;69870;51.460;8.842;2023-07-20T06:16:48;98285.47;;;16.07;80.33
80542;BME280;69870;51.460;8.842;2023-07-20T06:19:15;98284.69;;;16.07;80.42
80542;BME280;69870;51.460;8.842;2023-07-20T06:21:41;98287.81;;;16.05;80.42
80542;BME280;69870;51.460;8.842;2023-07-20T06:24:09;98282.34;;;16.05;80.13
80542;BME280;69870;51.460;8.842;2023-07-20T06:26:36;98291.75;;;16.08;79.94
80542;BME280;69870;51.460;8.842;2023-07-20T06:29:04;98294.09;;;16.17;80.45
80542;BME280;69870;51.460;8.842;2023-07-20T06:31:31;98295.69;;;16.18;80.24
80542;BME280;69870;51.460;8.842;2023-07-20T06:33:58;98296.84;;;16.17;80.05
80542;BME280;69870;51.460;8.842;2023-07-20T06:36:24;98292.16;;;16.17;79.95
80542;BME280;69870;51.460;8.842;2023-07-20T06:38:52;98291.75;;;16.15;79.92
80542;BME280;69870;51.460;8.842;2023-07-20T06:41:20;98295.66;;;16.14;79.88
80542;BME280;69870;51.460;8.842;2023-07-20T06:43:46;98309.75;;;16.09;79.87
80542;BME280;69870;51.460;8.842;2023-07-20T06:46:13;98308.59;;;16.13;79.74
80542;BME280;69870;51.460;8.842;2023-07-20T06:48:40;98306.66;;;16.18;79.73
80542;BME280;69870;51.460;8.842;2023-07-20T06:51:06;98309.81;;;16.20;79.54
80542;BME280;69870;51.460;8.842;2023-07-20T06:53:34;98305.06;;;16.20;79.76
80542;BME280;69870;51.460;8.842;2023-07-20T06:56:01;98310.56;;;16.27;79.52
80542;BME280;69870;51.460;8.842;2023-07-20T06:58:28;98312.91;;;16.36;79.35
80542;BME280;69870;51.460;8.842;2023-07-20T07:00:55;98316.06;;;16.45;79.10
80542;BME280;69870;51.460;8.842;2023-07-20T07:03:21;98316.50;;;16.50;78.86
80542;BME280;69870;51.460;8.842;2023-07-20T07:05:48;98325.50;;;16.54;78.60
80542;BME280;69870;51.460;8.842;2023-07-20T07:08:15;98323.94;;;16.57;78.40
80542;BME280;69870;51.460;8.842;2023-07-20T07:10:41;98323.56;;;16.55;78.32
80542;BME280;69870;51.460;8.842;2023-07-20T07:13:08;98318.84;;;16.55;78.18
80542;BME280;69870;51.460;8.842;2023-07-20T07:15:36;98321.59;;;16.59;78.32
80542;BME280;69870;51.460;8.842;2023-07-20T07:18:02;98334.13;;;16.67;77.94
80542;BME280;69870;51.460;8.842;2023-07-20T07:20:29;98334.13;;;16.74;77.69
80542;BME280;69870;51.460;8.842;2023-07-20T07:22:56;98337.25;;;16.83;77.38
80542;BME280;69870;51.460;8.842;2023-07-20T07:25:22;98331.34;;;16.84;77.45
80542;BME280;69870;51.460;8.842;2023-07-20T07:27:49;98343.13;;;16.92;77.17
80542;BME280;69870;51.460;8.842;2023-07-20T07:30:16;98334.09;;;16.99;76.88
80542;BME280;69870;51.460;8.842;2023-07-20T07:32:44;98344.66;;;17.07;76.40
80542;BME280;69870;51.460;8.842;2023-07-20T07:35:11;98332.50;;;17.08;76.13
80542;BME280;69870;51.460;8.842;2023-07-20T07:37:38;98341.13;;;17.10;76.05
80542;BME280;69870;51.460;8.842;2023-07-20T07:40:06;98339.53;;;17.23;75.60
80542;BME280;69870;51.460;8.842;2023-07-20T07:42:33;98338.69;;;17.40;75.41
80542;BME280;69870;51.460;8.842;2023-07-20T07:45:00;98335.91;;;17.54;74.95
80542;BME280;69870;51.460;8.842;2023-07-20T07:47:27;98344.00;;;17.90;74.46
80542;BME280;69870;51.460;8.842;2023-07-20T07:49:55;98346.16;;;18.23;73.02
80542;BME280;69870;51.460;8.842;2023-07-20T07:52:22;98349.94;;;18.47;72.29
80542;BME280;69870;51.460;8.842;2023-07-20T07:54:49;98351.06;;;18.56;71.92
80542;BME280;69870;51.460;8.842;2023-07-20T07:57:15;98339.19;;;18.66;71.76
80542;BME280;69870;51.460;8.842;2023-07-20T07:59:42;98355.56;;;18.80;71.69
80542;BME280;69870;51.460;8.842;2023-07-20T08:02:08;98350.41;;;18.86;70.58
80542;BME280;69870;51.460;8.842;2023-07-20T08:04:35;98359.47;;;18.86;71.14
80542;BME280;69870;51.460;8.842;2023-07-20T08:07:03;98364.19;;;18.86;70.78
80542;BME280;69870;51.460;8.842;2023-07-20T08:09:30;98361.84;;;18.84;70.46
80542;BME280;69870;51.460;8.842;2023-07-20T08:11:57;98367.38;;;18.81;70.72
80542;BME280;69870;51.460;8.842;2023-07-20T08:14:23;98374.22;;;18.66;70.97
80542;BME280;69870;51.460;8.842;2023-07-20T08:16:50;98380.28;;;18.36;71.08
80542;BME280;69870;51.460;8.842;2023-07-20T08:19:17;98379.34;;;18.02;71.90
80542;BME280;69870;51.460;8.842;2023-07-20T08:21:43;98381.03;;;17.75;72.33
80542;BME280;69870;51.460;8.842;2023-07-20T08:24:11;98386.59;;;17.61;72.84
80542;BME280;69870;51.460;8.842;2023-07-20T08:26:38;98389.69;;;17.70;72.78
80542;BME280;69870;51.460;8.842;2023-07-20T08:29:04;98379.56;;;18.28;71.55
80542;BME280;69870;51.460;8.842;2023-07-20T08:31:31;98372.19;;;19.18;69.41
80542;BME280;69870;51.460;8.842;2023-07-20T08:33:57;98378.00;;;19.94;67.22
80542;BME280;69870;51.460;8.842;2023-07-20T08:36:24;98368.69;;;20.11;66.26
80542;BME280;69870;51.460;8.842;2023-07-20T08:38:51;98380.94;;;20.40;65.47
80542;BME280;69870;51.460;8.842;2023-07-20T08:41:19;98380.34;;;20.79;65.20
80542;BME280;69870;51.460;8.842;2023-07-20T08:43:46;98378.59;;;21.12;64.21
80542;BME280;69870;51.460;8.842;2023-07-20T08:46:14;98378.84;;;21.21;62.34
80542;BME280;69870;51.460;8.842;2023-07-20T08:48:42;98377.94;;;21.47;61.89
80542;BME280;69870;51.460;8.842;2023-07-20T08:51:10;98380.31;;;21.68;60.01
80542;BME280;69870;51.460;8.842;2023-07-20T08:53:38;98376.63;;;21.55;60.09
80542;BME280;69870;51.460;8.842;2023-07-20T08:56:05;98376.66;;;21.32;60.36
80542;BME280;69870;51.460;8.842;2023-07-20T08:58:34;98389.31;;;21.10;60.96
80542;BME280;69870;51.460;8.842;2023-07-20T09:01:01;98385.09;;;21.25;60.28
80542;BME280;69870;51.460;8.842;2023-07-20T09:03:29;98385.28;;;21.57;59.10
80542;BME280;69870;51.460;8.842;2023-07-20T09:05:55;98388.63;;;21.49;59.11
80542;BME280;69870;51.460;8.842;2023-07-20T09:08:22;98390.03;;;21.57;58.89
80542;BME280;69870;51.460;8.842;2023-07-20T09:10:48;98386.28;;;22.06;57.66
80542;BME280;69870;51.460;8.842;2023-07-20T09:13:15;98388.41;;;22.70;55.94
80542;BME280;69870;51.460;8.842;2023-07-20T09:15:47;98389.50;;;23.21;54.72
80542;BME280;69870;51.460;8.842;2023-07-20T09:18:23;98387.38;;;23.57;54.15
80542;BME280;69870;51.460;8.842;2023-07-20T09:20:50;98384.44;;;23.77;52.82
80542;BME280;69870;51.460;8.842;2023-07-20T09:23:16;98385.66;;;23.47;52.68
80542;BME280;69870;51.460;8.842;2023-07-20T09:25:43;98396.56;;;22.93;53.63
80542;BME280;69870;51.460;8.842;2023-07-20T09:28:11;98397.03;;;22.20;55.12
80542;BME280;69870;51.460;8.842;2023-07-20T09:30:37;98400.53;;;21.65;56.37
80542;BME280;69870;51.460;8.842;2023-07-20T09:33:05;98396.13;;;21.48;56.89
80542;BME280;69870;51.460;8.842;2023-07-20T09:35:44;98397.84;;;22.01;55.66
80542;BME280;69870;51.460;8.842;2023-07-20T09:38:10;98394.72;;;22.87;54.29
80542;BME280;69870;51.460;8.842;2023-07-20T09:40:37;98380.97;;;23.73;52.30
80542;BME280;69870;51.460;8.842;2023-07-20T09:43:07;98381.53;;;24.47;50.86
80542;BME280;69870;51.460;8.842;2023-07-20T09:45:35;98379.59;;;25.19;48.70
80542;BME280;69870;51.460;8.842;2023-07-20T09:48:06;98378.31;;;25.67;47.61
80542;BME280;69870;51.460;8.842;2023-07-20T09:50:34;98374.22;;;26.02;46.87
80542;BME280;69870;51.460;8.842;2023-07-20T09:53:01;98378.75;;;26.70;45.55
80542;BME280;69870;51.460;8.842;2023-07-20T09:55:28;98370.84;;;27.45;44.40
80542;BME280;69870;51.460;8.842;2023-07-20T09:57:56;98368.53;;;27.71;43.54
80542;BME280;69870;51.460;8.842;2023-07-20T10:00:23;98372.19;;;27.22;44.01
80542;BME280;69870;51.460;8.842;2023-07-20T10:02:51;98374.34;;;27.09;43.40
80542;BME280;69870;51.460;8.842;2023-07-20T10:05:20;98364.44;;;27.08;42.83
80542;BME280;69870;51.460;8.842;2023-07-20T10:07:49;98368.94;;;27.15;42.28
80542;BME280;69870;51.460;8.842;2023-07-20T10:10:17;98377.81;;;27.13;42.12
80542;BME280;69870;51.460;8.842;2023-07-20T10:12:47;98370.41;;;27.37;41.05
80542;BME280;69870;51.460;8.842;2023-07-20T10:15:19;98376.72;;;27.92;40.50
80542;BME280;69870;51.460;8.842;2023-07-20T10:17:53;98372.34;;;28.60;39.66
80542;BME280;69870;51.460;8.842;2023-07-20T10:20:25;98378.78;;;29.17;38.51
80542;BME280;69870;51.460;8.842;2023-07-20T10:22:53;98381.41;;;29.59;37.54
80542;BME280;69870;51.460;8.842;2023-07-20T10:25:22;98377.81;;;29.97;36.65
80542;BME280;69870;51.460;8.842;2023-07-20T10:27:49;98379.25;;;29.92;36.48
80542;BME280;69870;51.460;8.842;2023-07-20T10:30:17;98373.63;;;29.39;36.90
80542;BME280;69870;51.460;8.842;2023-07-20T10:32:45;98367.75;;;28.81;37.81
80542;BME280;69870;51.460;8.842;2023-07-20T10:35:13;98373.03;;;27.77;39.62
80542;BME280;69870;51.460;8.842;2023-07-20T10:37:48;98375.84;;;26.74;41.35
80542;BME280;69870;51.460;8.842;2023-07-20T10:40:26;98366.44;;;26.99;41.13
80542;BME280;69870;51.460;8.842;2023-07-20T10:43:00;98367.84;;;27.94;39.29
80542;BME280;69870;51.460;8.842;2023-07-20T10:45:37;98368.78;;;28.92;37.37
80542;BME280;69870;51.460;8.842;2023-07-20T10:48:12;98362.78;;;29.47;35.50
80542;BME280;69870;51.460;8.842;2023-07-20T10:50:40;98363.44;;;29.65;34.17
80542;BME280;69870;51.460;8.842;2023-07-20T10:53:15;98357.81;;;29.03;34.80
80542;BME280;69870;51.460;8.842;2023-07-20T10:55:43;98364.28;;;28.53;35.89
80542;BME280;69870;51.460;8.842;2023-07-20T10:58:12;98378.53;;;28.73;36.10
80542;BME280;69870;51.460;8.842;2023-07-20T11:00:57;98366.09;;;28.23;35.70
80542;BME280;69870;51.460;8.842;2023-07-20T11:03:33;98367.28;;;27.63;36.36
80542;BME280;69870;51.460;8.842;2023-07-20T11:06:29;98356.44;;;27.55;36.93
80542;BME280;69870;51.460;8.842;2023-07-20T11:09:04;98359.63;;;27.90;37.00
80542;BME280;69870;51.460;8.842;2023-07-20T11:11:34;98365.72;;;27.89;36.81
80542;BME280;69870;51.460;8.842;2023-07-20T11:14:01;98355.88;;;27.03;37.17
80542;BME280;69870;51.460;8.842;2023-07-20T11:16:39;98360.09;;;26.58;37.44
80542;BME280;69870;51.460;8.842;2023-07-20T11:19:14;98355.53;;;26.43;38.21
80542;BME280;69870;51.460;8.842;2023-07-20T11:21:46;98359.13;;;26.12;37.96
80542;BME280;69870;51.460;8.842;2023-07-20T11:24:14;98361.53;;;25.58;38.51
80542;BME280;69870;51.460;8.842;2023-07-20T11:26:44;98352.78;;;25.13;39.37
80542;BME280;69870;51.460;8.842;2023-07-20T11:29:11;98345.03;;;24.83;40.55
80542;BME280;69870;51.460;8.842;2023-07-20T11:31:38;98355.19;;;24.77;40.83
80542;BME280;69870;51.460;8.842;2023-07-20T11:34:06;98356.94;;;24.58;40.24
80542;BME280;69870;51.460;8.842;2023-07-20T11:36:33;98347.97;;;24.29;40.07
80542;BME280;69870;51.460;8.842;2023-07-20T11:39:00;98343.38;;;24.10;40.73
80542;BME280;69870;51.460;8.842;2023-07-20T11:41:28;98342.94;;;24.11;41.22
80542;BME280;69870;51.460;8.842;2023-07-20T11:43:54;98353.63;;;24.25;40.96
80542;BME280;69870;51.460;8.842;2023-07-20T11:46:21;98346.94;;;24.23;41.19
80542;BME280;69870;51.460;8.842;2023-07-20T11:48:48;98340.19;;;24.24;41.15
80542;BME280;69870;51.460;8.842;2023-07-20T11:51:15;98334.28;;;24.22;40.75
80542;BME280;69870;51.460;8.842;2023-07-20T11:53:43;98333.94;;;24.07;40.56
80542;BME280;69870;51.460;8.842;2023-07-20T11:56:10;98336.72;;;24.32;40.38
80542;BME280;69870;51.460;8.842;2023-07-20T11:58:43;98338.63;;;24.35;40.33
80542;BME280;69870;51.460;8.842;2023-07-20T12:01:11;98336.41;;;24.30;39.62
80542;BME280;69870;51.460;8.842;2023-07-20T12:03:38;98334.38;;;24.18;39.82
80542;BME280;69870;51.460;8.842;2023-07-20T12:06:08;98328.50;;;24.29;39.00
80542;BME280;69870;51.460;8.842;2023-07-20T12:08:38;98330.41;;;24.44;39.09
80542;BME280;69870;51.460;8.842;2023-07-20T12:11:05;98329.59;;;24.56;39.54
80542;BME280;69870;51.460;8.842;2023-07-20T12:13:38;98325.91;;;24.59;40.01
80542;BME280;69870;51.460;8.842;2023-07-20T12:16:13;98329.28;;;24.17;39.84
80542;BME280;69870;51.460;8.842;2023-07-20T12:18:41;98323.47;;;24.11;40.09
80542;BME280;69870;51.460;8.842;2023-07-20T12:21:08;98328.94;;;24.15;39.63
80542;BME280;69870;51.460;8.842;2023-07-20T12:23:36;98325.50;;;24.23;39.43
80542;BME280;69870;51.460;8.842;2023-07-20T12:26:06;98327.59;;;24.19;39.02
80542;BME280;69870;51.460;8.842;2023-07-20T12:28:33;98327.78;;;23.99;39.36
80542;BME280;69870;51.460;8.842;2023-07-20T12:30:59;98323.06;;;23.71;39.68
80542;BME280;69870;51.460;8.842;2023-07-20T12:33:27;98327.63;;;23.37;39.77
80542;BME280;69870;51.460;8.842;2023-07-20T12:35:54;98323.41;;;23.16;40.10
80542;BME280;69870;51.460;8.842;2023-07-20T12:38:23;98332.97;;;22.99;40.81
80542;BME280;69870;51.460;8.842;2023-07-20T12:40:50;98322.66;;;22.99;40.84
80542;BME280;69870;51.460;8.842;2023-07-20T12:43:17;98323.69;;;23.05;39.17
80542;BME280;69870;51.460;8.842;2023-07-20T12:45:43;98319.28;;;23.08;38.65
80542;BME280;69870;51.460;8.842;2023-07-20T12:48:10;98322.00;;;22.95;37.92
80542;BME280;69870;51.460;8.842;2023-07-20T12:50:38;98324.94;;;23.04;37.73
80542;BME280;69870;51.460;8.842;2023-07-20T12:53:05;98328.38;;;23.08;37.70
80542;BME280;69870;51.460;8.842;2023-07-20T12:55:32;98325.78;;;23.01;37.83
80542;BME280;69870;51.460;8.842;2023-07-20T12:57:59;98318.03;;;23.09;37.80
80542;BME280;69870;51.460;8.842;2023-07-20T13:00:25;98314.09;;;23.22;37.68
80542;BME280;69870;51.460;8.842;2023-07-20T13:02:52;98313.56;;;23.44;38.15
80542;BME280;69870;51.460;8.842;2023-07-20T13:05:19;98307.97;;;23.72;37.97